sensor_id;sensor_type;location;lat;lon;timestamp;P1;durP1;ratioP1;P2;durP2;ratioP2
71648;SDS011;59492;45.638;11.714;2023-02-03T00:01:49;58.50;;;48.20;;
71648;SDS011;59492;45.638;11.714;2023-02-03T00:04:15;55.80;;;47.30;;
71648;SDS011;59492;45.638;11.714;2023-02-03T00:06:41;61.10;;;49.40;;
71648;SDS011;59492;45.638;11.714;2023-02-03T00:09:07;57.70;;;47.50;;
71648;SDS011;59492;45.638;11.714;2023-02-03T00:11:33;57.30;;;47.70;;
71648;SDS011;59492;45.638;11.714;2023-02-03T00:13:59;58.90;;;47.90;;
71648;SDS011;59492;45.638;11.714;2023-02-03T00:16:29;57.70;;;47.30;;
71648;SDS011;59492;45.638;11.714;2023-02-03T00:19:01;55.60;;;47.00;;
71648;SDS011;59492;45.638;11.714;2023-02-03T00:21:27;56.70;;;47.90;;
71648;SDS011;59492;45.638;11.714;2023-02-03T00:23:52;55.10;;;47.00;;
71648;SDS011;59492;45.638;11.714;2023-02-03T00:26:18;58.10;;;48.70;;
71648;SDS011;59492;45.638;11.714;2023-02-03T00:28:44;59.40;;;45.30;;
71648;SDS011;59492;45.638;11.714;2023-02-03T00:31:22;59.80;;;48.70;;
71648;SDS011;59492;45.638;11.714;2023-02-03T00:33:57;56.40;;;47.40;;
71648;SDS011;59492;45.638;11.714;2023-02-03T00:36:24;57.30;;;47.80;;
71648;SDS011;59492;45.638;11.714;2023-02-03T00:38:50;56.50;;;47.60;;
71648;SDS011;59492;45.638;11.714;2023-02-03T00:41:16;56.50;;;47.70;;
71648;SDS011;59492;45.638;11.714;2023-02-03T00:43:42;57.20;;;48.10;;
71648;SDS011;59492;45.638;11.714;2023-02-03T00:46:07;59.50;;;49.30;;
71648;SDS011;59492;45.638;11.714;2023-02-03T00:48:33;57.40;;;46.50;;
71648;SDS011;59492;45.638;11.714;2023-02-03T00:50:59;56.70;;;47.20;;
71648;SDS011;59492;45.638;11.714;2023-02-03T00:53:25;56.80;;;46.90;;
71648;SDS011;59492;45.638;11.714;2023-02-03T00:55:50;58.00;;;47.30;;
71648;SDS011;59492;45.638;11.714;2023-02-03T00:58:16;60.40;;;49.20;;
71648;SDS011;59492;45.638;11.714;2023-02-03T01:00:41;60.10;;;48.50;;
71648;SDS011;59492;45.638;11.714;2023-02-03T01:03:07;58.00;;;46.90;;
71648;SDS011;59492;45.638;11.714;2023-02-03T01:05:34;55.30;;;47.80;;
71648;SDS011;59492;45.638;11.714;2023-02-03T01:08:00;55.80;;;47.70;;
71648;SDS011;59492;45.638;11.714;2023-02-03T01:10:27;57.70;;;47.20;;
71648;SDS011;59492;45.638;11.714;2023-02-03T01:12:53;56.30;;;47.40;;
71648;SDS011;59492;45.638;11.714;2023-02-03T01:15:18;63.10;;;49.00;;
71648;SDS011;59492;45.638;11.714;2023-02-03T01:17:44;57.10;;;48.80;;
71648;SDS011;59492;45.638;11.714;2023-02-03T01:20:10;56.80;;;47.40;;
71648;SDS011;59492;45.638;11.714;2023-02-03T01:22:43;58.00;;;48.60;;
71648;SDS011;59492;45.638;11.714;2023-02-03T01:25:09;60.00;;;48.00;;
71648;SDS011;59492;45.638;11.714;2023-02-03T01:27:35;58.50;;;48.70;;
71648;SDS011;59492;45.638;11.714;2023-02-03T01:30:00;58.00;;;47.20;;
71648;SDS011;59492;45.638;11.714;2023-02-03T01:32:26;58.70;;;48.20;;
71648;SDS011;59492;45.638;11.714;2023-02-03T01:34:52;55.90;;;47.10;;
71648;SDS011;59492;45.638;11.714;2023-02-03T01:37:25;56.30;;;47.50;;
71648;SDS011;59492;45.638;11.714;2023-02-03T01:39:51;59.30;;;47.40;;
71648;SDS011;59492;45.638;11.714;2023-02-03T01:42:17;58.40;;;46.90;;
71648;SDS011;59492;45.638;11.714;2023-02-03T01:44:44;57.90;;;47.00;;
71648;SDS011;59492;45.638;11.714;2023-02-03T01:50:02;53.50;;;46.20;;
71648;SDS011;59492;45.638;11.714;2023-02-03T01:52:42;56.50;;;46.60;;
71648;SDS011;59492;45.638;11.714;2023-02-03T01:55:11;57.40;;;46.20;;
71648;SDS011;59492;45.638;11.714;2023-02-03T01:58:25;58.90;;;46.20;;
71648;SDS011;59492;45.638;11.714;2023-02-03T02:00:37;56.60;;;46.70;;
71648;SDS011;59492;45.638;11.714;2023-02-03T02:03:03;55.70;;;46.40;;
71648;SDS011;59492;45.638;11.714;2023-02-03T02:05:47;55.70;;;46.60;;
71648;SDS011;59492;45.638;11.714;2023-02-03T02:08:18;59.30;;;47.00;;
71648;SDS011;59492;45.638;11.714;2023-02-03T02:10:46;57.80;;;46.00;;
71648;SDS011;59492;45.638;11.714;2023-02-03T02:13:20;58.30;;;46.10;;
71648;SDS011;59492;45.638;11.714;2023-02-03T02:15:57;57.80;;;45.70;;
71648;SDS011;59492;45.638;11.714;2023-02-03T02:21:23;57.60;;;47.60;;
71648;SDS011;59492;45.638;11.714;2023-02-03T02:36:19;58.40;;;46.30;;
71648;SDS011;59492;45.638;11.714;2023-02-03T02:39:02;56.60;;;45.70;;
71648;SDS011;59492;45.638;11.714;2023-02-03T02:44:37;54.00;;;45.80;;
71648;SDS011;59492;45.638;11.714;2023-02-03T02:47:09;53.70;;;44.80;;
71648;SDS011;59492;45.638;11.714;2023-02-03T02:52:51;55.80;;;45.10;;
71648;SDS011;59492;45.638;11.714;2023-02-03T02:55:24;54.60;;;46.90;;
71648;SDS011;59492;45.638;11.714;2023-02-03T02:57:57;54.60;;;47.30;;
71648;SDS011;59492;45.638;11.714;2023-02-03T03:00:28;53.20;;;45.40;;
71648;SDS011;59492;45.638;11.714;2023-02-03T03:02:55;55.10;;;46.70;;
71648;SDS011;59492;45.638;11.714;2023-02-03T03:05:27;58.20;;;47.50;;
71648;SDS011;59492;45.638;11.714;2023-02-03T03:07:55;55.10;;;46.40;;
71648;SDS011;59492;45.638;11.714;2023-02-03T03:10:27;53.60;;;46.10;;
71648;SDS011;59492;45.638;11.714;2023-02-03T03:12:56;56.40;;;47.00;;
71648;SDS011;59492;45.638;11.714;2023-02-03T03:15:27;56.70;;;46.20;;
71648;SDS011;59492;45.638;11.714;2023-02-03T03:18:07;55.50;;;47.00;;
71648;SDS011;59492;45.638;11.714;2023-02-03T03:20:54;56.10;;;45.30;;
71648;SDS011;59492;45.638;11.714;2023-02-03T03:23:23;56.70;;;46.80;;
71648;SDS011;59492;45.638;11.714;2023-02-03T03:28:47;51.30;;;43.30;;
71648;SDS011;59492;45.638;11.714;2023-02-03T03:31:16;56.00;;;46.60;;
71648;SDS011;59492;45.638;11.714;2023-02-03T03:33:55;56.40;;;47.20;;
71648;SDS011;59492;45.638;11.714;2023-02-03T03:39:01;54.40;;;46.10;;
71648;SDS011;59492;45.638;11.714;2023-02-03T03:44:25;59.70;;;47.80;;
71648;SDS011;59492;45.638;11.714;2023-02-03T03:50:07;52.60;;;44.40;;
71648;SDS011;59492;45.638;11.714;2023-02-03T03:52:36;54.60;;;45.20;;
71648;SDS011;59492;45.638;11.714;2023-02-03T03:55:04;51.90;;;45.10;;
71648;SDS011;59492;45.638;11.714;2023-02-03T03:57:37;57.90;;;47.70;;
71648;SDS011;59492;45.638;11.714;2023-02-03T04:00:06;52.90;;;45.40;;
71648;SDS011;59492;45.638;11.714;2023-02-03T04:02:34;55.60;;;46.10;;
71648;SDS011;59492;45.638;11.714;2023-02-03T04:05:04;52.50;;;44.20;;
71648;SDS011;59492;45.638;11.714;2023-02-03T04:07:41;54.20;;;46.30;;
71648;SDS011;59492;45.638;11.714;2023-02-03T04:10:17;58.00;;;46.30;;
71648;SDS011;59492;45.638;11.714;2023-02-03T04:12:49;52.00;;;44.70;;
71648;SDS011;59492;45.638;11.714;2023-02-03T04:15:15;55.80;;;46.00;;
71648;SDS011;59492;45.638;11.714;2023-02-03T04:17:41;54.90;;;45.70;;
71648;SDS011;59492;45.638;11.714;2023-02-03T04:20:07;57.50;;;47.20;;
71648;SDS011;59492;45.638;11.714;2023-02-03T04:22:33;53.50;;;45.50;;
71648;SDS011;59492;45.638;11.714;2023-02-03T04:24:59;55.70;;;46.20;;
71648;SDS011;59492;45.638;11.714;2023-02-03T04:27:30;48.90;;;42.00;;
71648;SDS011;59492;45.638;11.714;2023-02-03T04:29:59;51.80;;;43.20;;
71648;SDS011;59492;45.638;11.714;2023-02-03T04:32:27;50.70;;;41.30;;
71648;SDS011;59492;45.638;11.714;2023-02-03T04:34:55;50.90;;;43.50;;
71648;SDS011;59492;45.638;11.714;2023-02-03T04:37:28;52.90;;;42.70;;
71648;SDS011;59492;45.638;11.714;2023-02-03T04:40:02;53.40;;;43.80;;
71648;SDS011;59492;45.638;11.714;2023-02-03T04:42:31;50.60;;;43.40;;
71648;SDS011;59492;45.638;11.714;2023-02-03T04:44:56;50.00;;;42.90;;
71648;SDS011;59492;45.638;11.714;2023-02-03T04:47:25;53.30;;;44.50;;
71648;SDS011;59492;45.638;11.714;2023-02-03T04:49:51;51.50;;;43.80;;
71648;SDS011;59492;45.638;11.714;2023-02-03T04:52:24;54.40;;;45.40;;
71648;SDS011;59492;45.638;11.714;2023-02-03T04:57:15;53.90;;;43.80;;
71648;SDS011;59492;45.638;11.714;2023-02-03T05:00:14;53.40;;;43.80;;
71648;SDS011;59492;45.638;11.714;2023-02-03T05:02:40;52.60;;;43.70;;
71648;SDS011;59492;45.638;11.714;2023-02-03T05:05:08;53.80;;;44.30;;
71648;SDS011;59492;45.638;11.714;2023-02-03T05:07:38;52.20;;;43.60;;
71648;SDS011;59492;45.638;11.714;2023-02-03T05:10:09;52.40;;;44.20;;
71648;SDS011;59492;45.638;11.714;2023-02-03T05:12:41;50.30;;;43.50;;
71648;SDS011;59492;45.638;11.714;2023-02-03T05:15:10;54.70;;;46.00;;
71648;SDS011;59492;45.638;11.714;2023-02-03T05:18:01;52.70;;;43.60;;
71648;SDS011;59492;45.638;11.714;2023-02-03T05:20:33;53.10;;;43.50;;
71648;SDS011;59492;45.638;11.714;2023-02-03T05:23:04;52.40;;;44.20;;
71648;SDS011;59492;45.638;11.714;2023-02-03T05:25:44;51.00;;;42.70;;
71648;SDS011;59492;45.638;11.714;2023-02-03T05:28:13;49.60;;;41.70;;
71648;SDS011;59492;45.638;11.714;2023-02-03T05:30:44;49.20;;;43.20;;
71648;SDS011;59492;45.638;11.714;2023-02-03T05:33:15;55.00;;;44.90;;
71648;SDS011;59492;45.638;11.714;2023-02-03T05:35:41;51.30;;;42.70;;
71648;SDS011;59492;45.638;11.714;2023-02-03T05:38:11;52.40;;;42.40;;
71648;SDS011;59492;45.638;11.714;2023-02-03T05:40:42;53.10;;;43.70;;
71648;SDS011;59492;45.638;11.714;2023-02-03T05:48:52;50.80;;;43.70;;
71648;SDS011;59492;45.638;11.714;2023-02-03T05:51:20;54.10;;;44.10;;
71648;SDS011;59492;45.638;11.714;2023-02-03T05:53:46;49.80;;;42.90;;
71648;SDS011;59492;45.638;11.714;2023-02-03T05:56:23;49.40;;;42.00;;
71648;SDS011;59492;45.638;11.714;2023-02-03T05:58:51;51.40;;;43.10;;
71648;SDS011;59492;45.638;11.714;2023-02-03T06:01:19;50.50;;;41.80;;
71648;SDS011;59492;45.638;11.714;2023-02-03T06:03:55;51.10;;;43.60;;
71648;SDS011;59492;45.638;11.714;2023-02-03T06:06:24;50.20;;;42.20;;
71648;SDS011;59492;45.638;11.714;2023-02-03T06:08:57;52.40;;;42.20;;
71648;SDS011;59492;45.638;11.714;2023-02-03T06:11:26;49.10;;;41.90;;
71648;SDS011;59492;45.638;11.714;2023-02-03T06:13:58;50.20;;;42.50;;
71648;SDS011;59492;45.638;11.714;2023-02-03T06:16:28;47.90;;;41.20;;
71648;SDS011;59492;45.638;11.714;2023-02-03T06:18:54;49.20;;;42.10;;
71648;SDS011;59492;45.638;11.714;2023-02-03T06:21:24;50.20;;;43.00;;
71648;SDS011;59492;45.638;11.714;2023-02-03T06:23:53;48.70;;;42.30;;
71648;SDS011;59492;45.638;11.714;2023-02-03T06:26:20;50.30;;;42.20;;
71648;SDS011;59492;45.638;11.714;2023-02-03T06:28:51;48.50;;;41.40;;
71648;SDS011;59492;45.638;11.714;2023-02-03T06:31:24;51.30;;;42.10;;
71648;SDS011;59492;45.638;11.714;2023-02-03T06:33:52;49.50;;;41.60;;
71648;SDS011;59492;45.638;11.714;2023-02-03T06:36:21;47.70;;;40.50;;
71648;SDS011;59492;45.638;11.714;2023-02-03T06:38:50;51.30;;;41.60;;
71648;SDS011;59492;45.638;11.714;2023-02-03T06:41:16;49.80;;;41.30;;
71648;SDS011;59492;45.638;11.714;2023-02-03T06:43:42;48.70;;;41.60;;
71648;SDS011;59492;45.638;11.714;2023-02-03T06:48:43;45.10;;;39.10;;
71648;SDS011;59492;45.638;11.714;2023-02-03T06:51:17;48.70;;;40.40;;
71648;SDS011;59492;45.638;11.714;2023-02-03T06:54:10;48.00;;;39.90;;
71648;SDS011;59492;45.638;11.714;2023-02-03T06:59:07;43.70;;;35.90;;
71648;SDS011;59492;45.638;11.714;2023-02-03T07:01:37;42.70;;;36.60;;
71648;SDS011;59492;45.638;11.714;2023-02-03T07:04:06;45.50;;;38.20;;
71648;SDS011;59492;45.638;11.714;2023-02-03T07:06:35;48.70;;;38.60;;
71648;SDS011;59492;45.638;11.714;2023-02-03T07:09:04;44.60;;;38.00;;
71648;SDS011;59492;45.638;11.714;2023-02-03T07:11:32;47.80;;;39.60;;
71648;SDS011;59492;45.638;11.714;2023-02-03T07:14:02;44.30;;;38.10;;
71648;SDS011;59492;45.638;11.714;2023-02-03T07:16:32;48.10;;;39.80;;
71648;SDS011;59492;45.638;11.714;2023-02-03T07:19:00;52.10;;;39.70;;
71648;SDS011;59492;45.638;11.714;2023-02-03T07:21:26;48.70;;;39.30;;
71648;SDS011;59492;45.638;11.714;2023-02-03T07:23:51;41.90;;;37.20;;
71648;SDS011;59492;45.638;11.714;2023-02-03T07:26:23;41.80;;;36.10;;
71648;SDS011;59492;45.638;11.714;2023-02-03T07:28:53;44.10;;;36.70;;
71648;SDS011;59492;45.638;11.714;2023-02-03T07:31:28;44.40;;;36.60;;
71648;SDS011;59492;45.638;11.714;2023-02-03T07:33:56;43.30;;;35.60;;
71648;SDS011;59492;45.638;11.714;2023-02-03T07:36:22;48.20;;;36.70;;
71648;SDS011;59492;45.638;11.714;2023-02-03T07:38:59;43.50;;;35.90;;
71648;SDS011;59492;45.638;11.714;2023-02-03T07:41:24;43.40;;;35.40;;
71648;SDS011;59492;45.638;11.714;2023-02-03T07:43:52;41.90;;;36.10;;
71648;SDS011;59492;45.638;11.714;2023-02-03T07:46:25;44.80;;;35.30;;
71648;SDS011;59492;45.638;11.714;2023-02-03T07:48:56;62.50;;;37.30;;
71648;SDS011;59492;45.638;11.714;2023-02-03T07:51:22;44.20;;;36.30;;
71648;SDS011;59492;45.638;11.714;2023-02-03T07:53:52;44.40;;;35.30;;
71648;SDS011;59492;45.638;11.714;2023-02-03T07:56:25;43.10;;;35.00;;
71648;SDS011;59492;45.638;11.714;2023-02-03T07:58:56;43.90;;;35.80;;
71648;SDS011;59492;45.638;11.714;2023-02-03T08:01:23;44.20;;;36.60;;
71648;SDS011;59492;45.638;11.714;2023-02-03T08:03:51;43.00;;;36.40;;
71648;SDS011;59492;45.638;11.714;2023-02-03T08:06:19;41.30;;;35.50;;
71648;SDS011;59492;45.638;11.714;2023-02-03T08:08:48;43.30;;;34.50;;
71648;SDS011;59492;45.638;11.714;2023-02-03T08:11:23;42.90;;;35.70;;
71648;SDS011;59492;45.638;11.714;2023-02-03T08:13:49;42.20;;;35.90;;
71648;SDS011;59492;45.638;11.714;2023-02-03T08:16:15;43.10;;;35.60;;
71648;SDS011;59492;45.638;11.714;2023-02-03T08:18:42;40.60;;;34.10;;
71648;SDS011;59492;45.638;11.714;2023-02-03T08:21:12;41.80;;;35.20;;
71648;SDS011;59492;45.638;11.714;2023-02-03T08:23:38;40.10;;;35.00;;
71648;SDS011;59492;45.638;11.714;2023-02-03T08:26:04;41.70;;;34.90;;
71648;SDS011;59492;45.638;11.714;2023-02-03T08:28:30;41.50;;;36.40;;
71648;SDS011;59492;45.638;11.714;2023-02-03T08:30:58;45.20;;;36.60;;
71648;SDS011;59492;45.638;11.714;2023-02-03T08:33:24;42.50;;;36.30;;
71648;SDS011;59492;45.638;11.714;2023-02-03T08:35:54;43.70;;;35.30;;
71648;SDS011;59492;45.638;11.714;2023-02-03T08:38:21;47.90;;;37.20;;
71648;SDS011;59492;45.638;11.714;2023-02-03T08:40:46;44.70;;;36.10;;
71648;SDS011;59492;45.638;11.714;2023-02-03T08:43:15;45.00;;;36.60;;
71648;SDS011;59492;45.638;11.714;2023-02-03T08:45:40;41.80;;;34.20;;
71648;SDS011;59492;45.638;11.714;2023-02-03T08:48:06;40.90;;;35.90;;
71648;SDS011;59492;45.638;11.714;2023-02-03T08:50:32;43.30;;;36.00;;
71648;SDS011;59492;45.638;11.714;2023-02-03T08:52:57;43.60;;;35.70;;
71648;SDS011;59492;45.638;11.714;2023-02-03T08:55:23;39.80;;;34.10;;
71648;SDS011;59492;45.638;11.714;2023-02-03T08:57:49;44.30;;;35.50;;
71648;SDS011;59492;45.638;11.714;2023-02-03T09:00:14;43.40;;;35.90;;
71648;SDS011;59492;45.638;11.714;2023-02-03T09:02:40;43.40;;;35.30;;
71648;SDS011;59492;45.638;11.714;2023-02-03T09:05:06;40.30;;;34.80;;
71648;SDS011;59492;45.638;11.714;2023-02-03T09:07:32;40.00;;;33.60;;
71648;SDS011;59492;45.638;11.714;2023-02-03T09:09:58;39.60;;;34.10;;
71648;SDS011;59492;45.638;11.714;2023-02-03T09:12:23;41.40;;;34.50;;
71648;SDS011;59492;45.638;11.714;2023-02-03T09:14:49;38.40;;;33.50;;
71648;SDS011;59492;45.638;11.714;2023-02-03T09:17:15;40.80;;;34.80;;
71648;SDS011;59492;45.638;11.714;2023-02-03T09:19:40;42.00;;;34.60;;
71648;SDS011;59492;45.638;11.714;2023-02-03T09:22:06;39.00;;;34.40;;
71648;SDS011;59492;45.638;11.714;2023-02-03T09:24:32;38.10;;;34.00;;
71648;SDS011;59492;45.638;11.714;2023-02-03T09:26:58;42.50;;;33.60;;
71648;SDS011;59492;45.638;11.714;2023-02-03T09:29:25;40.60;;;34.80;;
71648;SDS011;59492;45.638;11.714;2023-02-03T09:31:51;41.40;;;34.10;;
71648;SDS011;59492;45.638;11.714;2023-02-03T09:34:18;40.30;;;33.80;;
71648;SDS011;59492;45.638;11.714;2023-02-03T09:36:44;37.90;;;33.00;;
71648;SDS011;59492;45.638;11.714;2023-02-03T09:39:10;40.10;;;34.10;;
71648;SDS011;59492;45.638;11.714;2023-02-03T09:47:10;38.50;;;33.30;;
71648;SDS011;59492;45.638;11.714;2023-02-03T09:49:41;38.20;;;33.50;;
71648;SDS011;59492;45.638;11.714;2023-02-03T09:52:22;38.60;;;33.40;;
71648;SDS011;59492;45.638;11.714;2023-02-03T09:57:26;40.20;;;33.90;;
71648;SDS011;59492;45.638;11.714;2023-02-03T09:59:57;37.60;;;33.40;;
71648;SDS011;59492;45.638;11.714;2023-02-03T10:07:49;38.00;;;33.50;;
71648;SDS011;59492;45.638;11.714;2023-02-03T10:18:33;41.20;;;34.20;;
71648;SDS011;59492;45.638;11.714;2023-02-03T10:21:10;37.60;;;33.20;;
71648;SDS011;59492;45.638;11.714;2023-02-03T10:26:25;45.10;;;33.70;;
71648;SDS011;59492;45.638;11.714;2023-02-03T10:28:56;42.90;;;34.10;;
71648;SDS011;59492;45.638;11.714;2023-02-03T10:31:27;48.30;;;34.50;;
71648;SDS011;59492;45.638;11.714;2023-02-03T10:34:00;44.80;;;35.10;;
71648;SDS011;59492;45.638;11.714;2023-02-03T10:36:53;46.90;;;35.20;;
71648;SDS011;59492;45.638;11.714;2023-02-03T10:42:15;45.10;;;35.20;;
71648;SDS011;59492;45.638;11.714;2023-02-03T10:44:46;45.80;;;35.20;;
71648;SDS011;59492;45.638;11.714;2023-02-03T10:49:49;46.60;;;36.60;;
71648;SDS011;59492;45.638;11.714;2023-02-03T10:52:38;47.90;;;37.20;;
71648;SDS011;59492;45.638;11.714;2023-02-03T10:55:07;50.20;;;35.70;;
71648;SDS011;59492;45.638;11.714;2023-02-03T10:57:54;52.30;;;36.80;;
71648;SDS011;59492;45.638;11.714;2023-02-03T11:00:28;48.60;;;37.30;;
71648;SDS011;59492;45.638;11.714;2023-02-03T11:03:06;49.30;;;36.10;;
71648;SDS011;59492;45.638;11.714;2023-02-03T11:05:40;46.30;;;35.90;;
71648;SDS011;59492;45.638;11.714;2023-02-03T11:08:15;45.90;;;35.40;;
71648;SDS011;59492;45.638;11.714;2023-02-03T11:10:41;42.20;;;34.90;;
71648;SDS011;59492;45.638;11.714;2023-02-03T11:13:18;56.50;;;36.60;;
71648;SDS011;59492;45.638;11.714;2023-02-03T11:21:20;42.40;;;33.20;;
71648;SDS011;59492;45.638;11.714;2023-02-03T11:29:22;43.80;;;32.70;;
71648;SDS011;59492;45.638;11.714;2023-02-03T11:31:53;40.90;;;32.60;;
71648;SDS011;59492;45.638;11.714;2023-02-03T11:34:21;38.20;;;32.20;;
71648;SDS011;59492;45.638;11.714;2023-02-03T11:36:51;40.70;;;31.90;;
71648;SDS011;59492;45.638;11.714;2023-02-03T11:39:18;42.50;;;32.00;;
71648;SDS011;59492;45.638;11.714;2023-02-03T11:41:45;36.30;;;30.60;;
71648;SDS011;59492;45.638;11.714;2023-02-03T11:44:16;40.90;;;31.80;;
71648;SDS011;59492;45.638;11.714;2023-02-03T11:46:56;36.30;;;29.80;;
71648;SDS011;59492;45.638;11.714;2023-02-03T11:49:52;33.00;;;29.20;;
71648;SDS011;59492;45.638;11.714;2023-02-03T11:55:14;34.90;;;29.90;;
71648;SDS011;59492;45.638;11.714;2023-02-03T11:58:07;37.40;;;30.20;;
71648;SDS011;59492;45.638;11.714;2023-02-03T12:00:46;38.80;;;30.30;;
71648;SDS011;59492;45.638;11.714;2023-02-03T12:03:29;35.20;;;29.90;;
71648;SDS011;59492;45.638;11.714;2023-02-03T12:11:38;32.50;;;28.30;;
71648;SDS011;59492;45.638;11.714;2023-02-03T12:14:16;33.40;;;27.80;;
71648;SDS011;59492;45.638;11.714;2023-02-03T12:22:36;35.10;;;27.70;;
71648;SDS011;59492;45.638;11.714;2023-02-03T12:31:14;36.00;;;29.20;;
71648;SDS011;59492;45.638;11.714;2023-02-03T12:36:47;33.80;;;27.70;;
71648;SDS011;59492;45.638;11.714;2023-02-03T12:39:23;33.10;;;28.10;;
71648;SDS011;59492;45.638;11.714;2023-02-03T12:42:38;34.20;;;28.50;;
71648;SDS011;59492;45.638;11.714;2023-02-03T12:44:48;31.60;;;26.70;;
71648;SDS011;59492;45.638;11.714;2023-02-03T12:47:23;32.30;;;26.60;;
71648;SDS011;59492;45.638;11.714;2023-02-03T12:50:00;29.40;;;25.70;;
71648;SDS011;59492;45.638;11.714;2023-02-03T12:53:01;30.50;;;26.30;;
71648;SDS011;59492;45.638;11.714;2023-02-03T12:55:35;31.70;;;26.90;;
71648;SDS011;59492;45.638;11.714;2023-02-03T12:58:06;32.10;;;27.30;;
71648;SDS011;59492;45.638;11.714;2023-02-03T13:06:01;35.40;;;27.80;;
71648;SDS011;59492;45.638;11.714;2023-02-03T13:08:38;31.80;;;26.40;;
71648;SDS011;59492;45.638;11.714;2023-02-03T13:11:17;32.60;;;28.40;;
71648;SDS011;59492;45.638;11.714;2023-02-03T13:13:54;35.40;;;27.60;;
71648;SDS011;59492;45.638;11.714;2023-02-03T13:16:24;34.50;;;28.90;;
71648;SDS011;59492;45.638;11.714;2023-02-03T13:18:55;33.10;;;27.40;;
71648;SDS011;59492;45.638;11.714;2023-02-03T13:21:26;36.10;;;29.40;;
71648;SDS011;59492;45.638;11.714;2023-02-03T13:23:52;34.60;;;27.90;;
71648;SDS011;59492;45.638;11.714;2023-02-03T13:29:02;107.00;;;74.40;;
71648;SDS011;59492;45.638;11.714;2023-02-03T13:32:02;95.40;;;63.70;;
71648;SDS011;59492;45.638;11.714;2023-02-03T13:34:48;83.40;;;60.90;;
71648;SDS011;59492;45.638;11.714;2023-02-03T13:42:29;71.70;;;53.70;;
71648;SDS011;59492;45.638;11.714;2023-02-03T13:47:55;69.10;;;51.20;;
71648;SDS011;59492;45.638;11.714;2023-02-03T13:50:34;67.10;;;50.50;;
71648;SDS011;59492;45.638;11.714;2023-02-03T13:55:34;70.50;;;49.20;;
71648;SDS011;59492;45.638;11.714;2023-02-03T13:58:05;66.30;;;49.00;;
71648;SDS011;59492;45.638;11.714;2023-02-03T14:03:54;63.20;;;47.10;;
71648;SDS011;59492;45.638;11.714;2023-02-03T14:05:57;59.80;;;46.10;;
71648;SDS011;59492;45.638;11.714;2023-02-03T14:14:01;50.80;;;40.00;;
71648;SDS011;59492;45.638;11.714;2023-02-03T14:16:43;54.80;;;40.50;;
71648;SDS011;59492;45.638;11.714;2023-02-03T14:21:52;51.20;;;39.40;;
71648;SDS011;59492;45.638;11.714;2023-02-03T14:24:23;54.30;;;39.10;;
71648;SDS011;59492;45.638;11.714;2023-02-03T14:26:59;49.30;;;37.10;;
71648;SDS011;59492;45.638;11.714;2023-02-03T14:29:31;48.90;;;37.00;;
71648;SDS011;59492;45.638;11.714;2023-02-03T14:32:02;48.80;;;37.70;;
71648;SDS011;59492;45.638;11.714;2023-02-03T14:34:32;43.80;;;35.70;;
71648;SDS011;59492;45.638;11.714;2023-02-03T14:37:21;47.50;;;34.30;;
71648;SDS011;59492;45.638;11.714;2023-02-03T14:43:01;39.20;;;31.80;;
71648;SDS011;59492;45.638;11.714;2023-02-03T14:45:46;43.40;;;34.00;;
71648;SDS011;59492;45.638;11.714;2023-02-03T14:58:54;37.50;;;31.20;;
71648;SDS011;59492;45.638;11.714;2023-02-03T15:04:20;33.70;;;28.10;;
71648;SDS011;59492;45.638;11.714;2023-02-03T15:06:48;38.30;;;30.50;;
71648;SDS011;59492;45.638;11.714;2023-02-03T15:09:27;37.70;;;30.40;;
71648;SDS011;59492;45.638;11.714;2023-02-03T15:11:59;38.20;;;28.90;;
71648;SDS011;59492;45.638;11.714;2023-02-03T15:14:27;37.10;;;29.90;;
71648;SDS011;59492;45.638;11.714;2023-02-03T15:17:02;34.60;;;28.90;;
71648;SDS011;59492;45.638;11.714;2023-02-03T15:19:38;35.60;;;29.10;;
71648;SDS011;59492;45.638;11.714;2023-02-03T15:22:18;34.30;;;29.50;;
71648;SDS011;59492;45.638;11.714;2023-02-03T15:24:45;36.80;;;29.60;;
71648;SDS011;59492;45.638;11.714;2023-02-03T15:27:24;36.10;;;29.70;;
71648;SDS011;59492;45.638;11.714;2023-02-03T15:29:52;35.70;;;30.30;;
71648;SDS011;59492;45.638;11.714;2023-02-03T15:35:15;42.70;;;33.70;;
71648;SDS011;59492;45.638;11.714;2023-02-03T15:37:48;36.60;;;31.20;;
71648;SDS011;59492;45.638;11.714;2023-02-03T15:40:17;39.00;;;32.80;;
71648;SDS011;59492;45.638;11.714;2023-02-03T15:45:27;42.10;;;31.50;;
71648;SDS011;59492;45.638;11.714;2023-02-03T15:48:45;38.70;;;30.70;;
71648;SDS011;59492;45.638;11.714;2023-02-03T15:51:11;35.50;;;30.30;;
71648;SDS011;59492;45.638;11.714;2023-02-03T15:56:41;33.60;;;29.40;;
71648;SDS011;59492;45.638;11.714;2023-02-03T15:59:29;34.40;;;29.20;;
71648;SDS011;59492;45.638;11.714;2023-02-03T16:02:00;35.00;;;29.70;;
71648;SDS011;59492;45.638;11.714;2023-02-03T16:04:31;34.30;;;29.50;;
71648;SDS011;59492;45.638;11.714;2023-02-03T16:06:56;33.70;;;28.70;;
71648;SDS011;59492;45.638;11.714;2023-02-03T16:09:28;35.60;;;28.90;;
71648;SDS011;59492;45.638;11.714;2023-02-03T16:12:04;32.10;;;26.40;;
71648;SDS011;59492;45.638;11.714;2023-02-03T16:14:38;32.40;;;25.40;;
71648;SDS011;59492;45.638;11.714;2023-02-03T16:17:05;32.70;;;26.50;;
71648;SDS011;59492;45.638;11.714;2023-02-03T16:19:41;31.70;;;26.80;;
71648;SDS011;59492;45.638;11.714;2023-02-03T16:24:53;33.50;;;28.30;;
71648;SDS011;59492;45.638;11.714;2023-02-03T16:33:09;32.80;;;27.50;;
71648;SDS011;59492;45.638;11.714;2023-02-03T16:36:09;32.60;;;28.20;;
71648;SDS011;59492;45.638;11.714;2023-02-03T16:38:56;35.70;;;28.70;;
71648;SDS011;59492;45.638;11.714;2023-02-03T16:41:44;34.90;;;28.50;;
71648;SDS011;59492;45.638;11.714;2023-02-03T16:44:28;34.00;;;28.00;;
71648;SDS011;59492;45.638;11.714;2023-02-03T16:47:20;32.90;;;28.00;;
71648;SDS011;59492;45.638;11.714;2023-02-03T16:50:15;31.10;;;27.40;;
71648;SDS011;59492;45.638;11.714;2023-02-03T16:53:04;33.80;;;28.40;;
71648;SDS011;59492;45.638;11.714;2023-02-03T16:58:00;31.40;;;27.20;;
71648;SDS011;59492;45.638;11.714;2023-02-03T17:00:26;33.00;;;27.90;;
71648;SDS011;59492;45.638;11.714;2023-02-03T17:02:52;33.90;;;28.00;;
71648;SDS011;59492;45.638;11.714;2023-02-03T17:05:17;37.40;;;29.20;;
71648;SDS011;59492;45.638;11.714;2023-02-03T17:07:44;37.10;;;30.70;;
71648;SDS011;59492;45.638;11.714;2023-02-03T17:10:10;38.20;;;32.50;;
71648;SDS011;59492;45.638;11.714;2023-02-03T17:12:36;43.60;;;33.20;;
71648;SDS011;59492;45.638;11.714;2023-02-03T17:15:05;43.70;;;34.00;;
71648;SDS011;59492;45.638;11.714;2023-02-03T17:17:31;48.30;;;36.60;;
71648;SDS011;59492;45.638;11.714;2023-02-03T17:20:00;45.20;;;36.10;;
71648;SDS011;59492;45.638;11.714;2023-02-03T17:22:26;44.50;;;35.40;;
71648;SDS011;59492;45.638;11.714;2023-02-03T17:25:02;45.10;;;35.30;;
71648;SDS011;59492;45.638;11.714;2023-02-03T17:27:28;40.10;;;32.30;;
71648;SDS011;59492;45.638;11.714;2023-02-03T17:29:55;40.50;;;32.30;;
71648;SDS011;59492;45.638;11.714;2023-02-03T17:32:21;43.30;;;33.40;;